Time;durP1;ratioP1;P1;durP2;ratioP2;P2;SDS_P1;SDS_P2;PMS_P1;PMS_P2;Temp;Humidity;BMP_temperature;BMP_pressure;BME280_temperature;BME280_humidity;BME280_pressure;Samples;Min_cycle;Max_cycle;Signal;HPM_P1;HPM_P2
2022/08/22 00:00:17;;;;;;;;;;;;;;;;;;5042711;28;19929;-83
2022/08/22 00:02:52;;;;;;;;;;;;;;;;;;5039824;28;19980;-84
2022/08/22 00:05:25;;;;;;;;;;;;;;;;;;5039234;28;19926;-84
2022/08/22 00:07:56;;;;;;;;;;;;;;;;;;5039135;28;19956;-83
2022/08/22 00:10:24;;;;;;;;;;;;;;;;;;5038815;28;19976;-83
2022/08/22 00:12:54;;;;;;;;;;;;;;;;;;5038789;28;20097;-84
2022/08/22 00:15:25;;;;;;;;;;;;;;;;;;5039440;28;19960;-83
2022/08/22 00:17:55;;;;;;;;;;;;;;;;;;5018014;28;20385;-83
2022/08/22 00:20:26;;;;;;;;;;;;;;;;;;5017481;28;20316;-83
2022/08/22 00:23:03;;;;;;;;;;;;;;;;;;5018089;28;19968;-83
2022/08/22 00:25:37;;;;;;;;;;;;;;;;;;5018363;28;19956;-84
2022/08/22 00:28:07;;;;;;;;;;;;;;;;;;5018602;28;19929;-85
2022/08/22 00:30:37;;;;;;;;;;;;;;;;;;5019223;28;19960;-84
2022/08/22 00:33:08;;;;;;;;;;;;;;;;;;5024544;28;20311;-84
2022/08/22 00:35:38;;;;;;;;;;;;;;;;;;5024704;28;19925;-82
2022/08/22 00:38:07;;;;;;;;;;;;;;;;;;5019547;28;20012;-83
2022/08/22 00:40:52;;;;;;;;;;;;;;;;;;5029484;28;19929;-84
2022/08/22 00:43:36;;;;;;;;;;;;;;;;;;5041717;28;20450;-83
2022/08/22 00:46:11;;;;;;;;;;;;;;;;;;5052665;28;19981;-82
2022/08/22 00:48:53;;;;;;;;;;;;;;;;;;5058099;28;19925;-81
2022/08/22 00:51:38;;;;;;;;;;;;;;;;;;5058159;28;20127;-82
2022/08/22 00:54:10;;;;;;;;;;;;;;;;;;5045676;28;19931;-83
2022/08/22 00:56:52;;;;;;;;;;;;;;;;;;5039439;28;19968;-81
2022/08/22 00:59:29;;;;;;;;;;;;;;;;;;5036390;28;20292;-82
2022/08/22 01:05:03;;;;;;;;;;;;;;;;;;5037600;28;19924;-82
2022/08/22 01:07:35;;;;;;;;;;;;;;;;;;5035489;28;19936;-81
2022/08/22 01:10:16;;;;;;;;;;;;;;;;;;5035935;28;19932;-82
2022/08/22 01:12:48;;;;;;;;;;;;;;;;;;5036175;28;19925;-83
2022/08/22 01:15:17;;;;;;;;;;;;;;;;;;5036932;28;19925;-83
2022/08/22 01:17:49;;;;;;;;;;;;;;;;;;5035869;28;19936;-83
2022/08/22 01:20:45;;;;;;;;;;;;;;;;;;5036850;28;19925;-84
2022/08/22 01:23:26;;;;;;;;;;;;;;;;;;5037716;28;20004;-85
2022/08/22 01:26:11;;;;;;;;;;;;;;;;;;5033782;28;20012;-85
2022/08/22 01:28:48;;;;;;;;;;;;;;;;;;4997488;28;19925;-85
2022/08/22 01:31:45;;;;;;;;;;;;;;;;;;5036999;28;19931;-85
2022/08/22 01:34:40;;;;;;;;;;;;;;;;;;5038055;28;20016;-84
2022/08/22 01:37:13;;;;;;;;;;;;;;;;;;5018049;28;20339;-85
2022/08/22 01:39:52;;;;;;;;;;;;;;;;;;5018196;28;19925;-84
2022/08/22 01:42:31;;;;;;;;;;;;;;;;;;5018658;28;19940;-83
2022/08/22 01:45:08;;;;;;;;;;;;;;;;;;5034890;28;19931;-82
2022/08/22 01:47:37;;;;;;;;;;;;;;;;;;5035753;28;19979;-83
2022/08/22 01:50:12;;;;;;;;;;;;;;;;;;5036056;28;20566;-85
2022/08/22 01:52:42;;;;;;;;;;;;;;;;;;5034677;28;20303;-84
2022/08/22 01:55:11;;;;;;;;;;;;;;;;;;5035396;28;20395;-84
2022/08/22 01:57:49;;;;;;;;;;;;;;;;;;5015055;28;19925;-84
2022/08/22 02:00:16;;;;;;;;;;;;;;;;;;5015755;28;19925;-84
2022/08/22 02:02:50;;;;;;;;;;;;;;;;;;5016116;28;19977;-83
2022/08/22 02:05:24;;;;;;;;;;;;;;;;;;5015912;28;20036;-84
2022/08/22 02:07:56;;;;;;;;;;;;;;;;;;5016708;28;20142;-85
2022/08/22 02:10:26;;;;;;;;;;;;;;;;;;5018180;28;19925;-83
2022/08/22 02:13:00;;;;;;;;;;;;;;;;;;5019622;28;19932;-83
2022/08/22 02:15:35;;;;;;;;;;;;;;;;;;5018340;28;20287;-85
2022/08/22 02:18:11;;;;;;;;;;;;;;;;;;5017884;28;19933;-84
2022/08/22 02:20:43;;;;;;;;;;;;;;;;;;5025474;28;19964;-83
2022/08/22 02:23:19;;;;;;;;;;;;;;;;;;5037292;28;19931;-84
2022/08/22 02:25:50;;;;;;;;;;;;;;;;;;5037123;28;19936;-86
2022/08/22 02:28:27;;;;;;;;;;;;;;;;;;5036818;28;19933;-85
2022/08/22 02:30:59;;;;;;;;;;;;;;;;;;5039184;28;19932;-83
2022/08/22 02:33:31;;;;;;;;;;;;;;;;;;5039941;28;20369;-83
2022/08/22 02:36:01;;;;;;;;;;;;;;;;;;5039434;28;19931;-84
2022/08/22 02:38:29;;;;;;;;;;;;;;;;;;5039595;28;19925;-83
2022/08/22 02:41:02;;;;;;;;;;;;;;;;;;5038935;28;19929;-83
2022/08/22 02:43:33;;;;;;;;;;;;;;;;;;5043496;28;19925;-84
2022/08/22 02:46:05;;;;;;;;;;;;;;;;;;5043652;28;20036;-84
2022/08/22 02:48:36;;;;;;;;;;;;;;;;;;5045148;28;20370;-85
2022/08/22 02:51:10;;;;;;;;;;;;;;;;;;5045787;28;19925;-84
2022/08/22 02:53:38;;;;;;;;;;;;;;;;;;5046316;28;19925;-82
2022/08/22 02:56:08;;;;;;;;;;;;;;;;;;5046491;28;19929;-83
2022/08/22 02:58:39;;;;;;;;;;;;;;;;;;5039526;28;19936;-83
2022/08/22 03:01:22;;;;;;;;;;;;;;;;;;5039252;28;19925;-83
2022/08/22 03:03:50;;;;;;;;;;;;;;;;;;5039641;28;19947;-84
2022/08/22 03:06:31;;;;;;;;;;;;;;;;;;5043475;28;19976;-84
2022/08/22 03:09:06;;;;;;;;;;;;;;;;;;5036961;28;19971;-85
2022/08/22 03:11:36;;;;;;;;;;;;;;;;;;5039387;28;19993;-85
2022/08/22 03:14:06;;;;;;;;;;;;;;;;;;5039853;28;19925;-85
2022/08/22 03:16:36;;;;;;;;;;;;;;;;;;5039336;28;20352;-84
2022/08/22 03:19:06;;;;;;;;;;;;;;;;;;5043360;28;20283;-83
2022/08/22 03:21:35;;;;;;;;;;;;;;;;;;5042546;28;19976;-84
2022/08/22 03:24:05;;;;;;;;;;;;;;;;;;5041566;28;19925;-86
2022/08/22 03:26:35;;;;;;;;;;;;;;;;;;5039807;28;20015;-84
2022/08/22 03:29:04;;;;;;;;;;;;;;;;;;5041168;28;19936;-84
2022/08/22 03:31:31;;;;;;;;;;;;;;;;;;5043958;28;19925;-84
2022/08/22 03:34:20;;;;;;;;;;;;;;;;;;5039537;28;19993;-84
2022/08/22 03:36:47;;;;;;;;;;;;;;;;;;5041616;28;19925;-83
2022/08/22 03:39:17;;;;;;;;;;;;;;;;;;5042234;28;19925;-84
2022/08/22 03:42:02;;;;;;;;;;;;;;;;;;5038141;28;20343;-84
2022/08/22 03:44:45;;;;;;;;;;;;;;;;;;5039971;28;19926;-83
2022/08/22 03:47:33;;;;;;;;;;;;;;;;;;5020049;28;19932;-84
2022/08/22 03:50:23;;;;;;;;;;;;;;;;;;5014932;28;19926;-83
2022/08/22 03:53:10;;;;;;;;;;;;;;;;;;5005634;28;20375;-84
2022/08/22 03:55:51;;;;;;;;;;;;;;;;;;5021124;28;19969;-84
2022/08/22 03:58:35;;;;;;;;;;;;;;;;;;5037427;28;19983;-85
2022/08/22 04:01:20;;;;;;;;;;;;;;;;;;5039670;28;19925;-87
2022/08/22 04:04:08;;;;;;;;;;;;;;;;;;5040923;28;19932;-85
2022/08/22 04:07:00;;;;;;;;;;;;;;;;;;5042045;28;19932;-82
2022/08/22 04:09:44;;;;;;;;;;;;;;;;;;5041707;28;19981;-85
2022/08/22 04:12:25;;;;;;;;;;;;;;;;;;5057664;28;19909;-83
2022/08/22 04:15:10;;;;;;;;;;;;;;;;;;5056899;28;19956;-84
2022/08/22 04:17:55;;;;;;;;;;;;;;;;;;5057841;28;19925;-82
2022/08/22 04:20:36;;;;;;;;;;;;;;;;;;5052946;28;19932;-82
2022/08/22 04:23:17;;;;;;;;;;;;;;;;;;5038592;28;20012;-82
2022/08/22 04:25:45;;;;;;;;;;;;;;;;;;5051875;28;19931;-82
2022/08/22 04:28:16;;;;;;;;;;;;;;;;;;5058993;28;19921;-84
2022/08/22 04:30:46;;;;;;;;;;;;;;;;;;5058770;28;19913;-85
2022/08/22 04:33:16;;;;;;;;;;;;;;;;;;5052024;28;19932;-83
2022/08/22 04:35:46;;;;;;;;;;;;;;;;;;5041999;28;20019;-84
2022/08/22 04:38:15;;;;;;;;;;;;;;;;;;5038741;28;20019;-85
2022/08/22 04:40:44;;;;;;;;;;;;;;;;;;5039274;28;19972;-82
2022/08/22 04:43:14;;;;;;;;;;;;;;;;;;5038496;28;20399;-84
2022/08/22 04:45:43;;;;;;;;;;;;;;;;;;5038443;28;19925;-83
2022/08/22 04:48:13;;;;;;;;;;;;;;;;;;5037229;28;19988;-85
2022/08/22 04:50:42;;;;;;;;;;;;;;;;;;5041791;28;19960;-85
2022/08/22 04:53:17;;;;;;;;;;;;;;;;;;5041295;28;19968;-84
2022/08/22 04:55:48;;;;;;;;;;;;;;;;;;5038351;28;19925;-85
2022/08/22 04:58:22;;;;;;;;;;;;;;;;;;5037955;28;19932;-83
2022/08/22 05:00:51;;;;;;;;;;;;;;;;;;5038893;28;20009;-84
2022/08/22 05:03:21;;;;;;;;;;;;;;;;;;5039993;28;20252;-84
2022/08/22 05:05:48;;;;;;;;;;;;;;;;;;5037682;28;19928;-83
2022/08/22 05:08:19;;;;;;;;;;;;;;;;;;5040752;28;20096;-85
2022/08/22 05:10:47;;;;;;;;;;;;;;;;;;5040603;28;19996;-83
2022/08/22 05:13:16;;;;;;;;;;;;;;;;;;5039419;28;20004;-82
2022/08/22 05:15:46;;;;;;;;;;;;;;;;;;5040177;28;19925;-85
2022/08/22 05:18:17;;;;;;;;;;;;;;;;;;5037896;28;20012;-84
2022/08/22 05:20:45;;;;;;;;;;;;;;;;;;5038272;28;19988;-84
2022/08/22 05:23:16;;;;;;;;;;;;;;;;;;5037630;28;19971;-82
2022/08/22 05:25:44;;;;;;;;;;;;;;;;;;5037311;28;20377;-84
2022/08/22 05:28:14;;;;;;;;;;;;;;;;;;5037585;28;19972;-84
2022/08/22 05:30:43;;;;;;;;;;;;;;;;;;5038876;28;19926;-84
2022/08/22 05:33:14;;;;;;;;;;;;;;;;;;5036567;28;19972;-83
2022/08/22 05:35:42;;;;;;;;;;;;;;;;;;5036426;28;19972;-83
2022/08/22 05:38:12;;;;;;;;;;;;;;;;;;5037964;28;20020;-84
2022/08/22 05:40:41;;;;;;;;;;;;;;;;;;5037414;28;19985;-84
2022/08/22 05:43:11;;;;;;;;;;;;;;;;;;5035522;28;19936;-77
2022/08/22 05:45:38;;;;;;;;;;;;;;;;;;5037122;28;20307;-77
2022/08/22 05:48:07;;;;;;;;;;;;;;;;;;5035435;28;20372;-78
2022/08/22 05:50:35;;;;;;;;;;;;;;;;;;5035757;28;20004;-77
2022/08/22 05:53:05;;;;;;;;;;;;;;;;;;5036144;28;19925;-79
2022/08/22 05:55:35;;;;;;;;;;;;;;;;;;5039792;28;19925;-79
2022/08/22 05:58:18;;;;;;;;;;;;;;;;;;5039622;28;20003;-77
2022/08/22 06:00:47;;;;;;;;;;;;;;;;;;5087122;22;20015;-76
2022/08/22 06:03:16;;;;;;;;;;;;;;;;;;5073602;28;20012;-75
2022/08/22 06:05:45;;;;;;;;;;;;;;;;;;5071856;28;20359;-76
2022/08/22 06:08:17;;;;;;;;;;;;;;;;;;5071925;28;20019;-77
2022/08/22 06:10:44;;;;;;;;;;;;;;;;;;5072125;28;20002;-76
2022/08/22 06:13:13;;;;;;;;;;;;;;;;;;5071936;28;20306;-76
2022/08/22 06:15:44;;;;;;;;;;;;;;;;;;5072206;28;19928;-76
2022/08/22 06:18:12;;;;;;;;;;;;;;;;;;5072834;28;20367;-76
2022/08/22 06:20:42;;;;;;;;;;;;;;;;;;5071332;28;20375;-76
2022/08/22 06:23:12;;;;;;;;;;;;;;;;;;5072000;28;20267;-75
2022/08/22 06:25:39;;;;;;;;;;;;;;;;;;5078829;28;20340;-76
2022/08/22 06:28:08;;;;;;;;;;;;;;;;;;5092192;28;19927;-76
2022/08/22 06:30:36;;;;;;;;;;;;;;;;;;5091809;28;19967;-76
2022/08/22 06:33:06;;;;;;;;;;;;;;;;;;5092667;28;19928;-77
2022/08/22 06:36:29;;;;;;;;;;;;;;;;;;5074379;28;19924;-77
2022/08/22 06:38:23;;;;;;;;;;;;;;;;;;5071323;28;19947;-76
2022/08/22 06:40:53;;;;;;;;;;;;;;;;;;5071230;28;19964;-76
2022/08/22 06:43:20;;;;;;;;;;;;;;;;;;5071331;28;19925;-77
2022/08/22 06:45:47;;;;;;;;;;;;;;;;;;5071993;28;19979;-76
2022/08/22 06:48:18;;;;;;;;;;;;;;;;;;5071661;28;19947;-76
2022/08/22 06:50:48;;;;;;;;;;;;;;;;;;5071621;28;19934;-76
2022/08/22 06:53:17;;;;;;;;;;;;;;;;;;5071034;28;19970;-76
2022/08/22 06:55:49;;;;;;;;;;;;;;;;;;5071875;28;19960;-75
2022/08/22 06:58:18;;;;;;;;;;;;;;;;;;5071235;28;19975;-76
2022/08/22 07:00:46;;;;;;;;;;;;;;;;;;5071063;28;20442;-76
2022/08/22 07:03:16;;;;;;;;;;;;;;;;;;5071879;28;20015;-76
2022/08/22 07:05:44;;;;;;;;;;;;;;;;;;5071736;28;19925;-76
2022/08/22 07:08:13;;;;;;;;;;;;;;;;;;5071331;28;19924;-76
2022/08/22 07:10:40;;;;;;;;;;;;;;;;;;5071441;28;19947;-76
2022/08/22 07:13:12;;;;;;;;;;;;;;;;;;5071613;28;19976;-76
2022/08/22 07:15:40;;;;;;;;;;;;;;;;;;5071548;28;19964;-77
2022/08/22 07:18:08;;;;;;;;;;;;;;;;;;5074875;28;19932;-76
2022/08/22 07:20:37;;;;;;;;;;;;;;;;;;5074585;28;19955;-75
2022/08/22 07:23:07;;;;;;;;;;;;;;;;;;5075111;28;19928;-75
2022/08/22 07:25:39;;;;;;;;;;;;;;;;;;5075399;28;19925;-77
2022/08/22 07:28:13;;;;;;;;;;;;;;;;;;5075170;28;19970;-77
2022/08/22 07:30:44;;;;;;;;;;;;;;;;;;5074602;28;19924;-76
2022/08/22 07:33:15;;;;;;;;;;;;;;;;;;5074791;28;20020;-76
2022/08/22 07:35:45;;;;;;;;;;;;;;;;;;5084366;28;19924;-76
2022/08/22 07:38:17;;;;;;;;;;;;;;;;;;5094840;28;19924;-76
2022/08/22 07:40:49;;;;;;;;;;;;;;;;;;5094802;28;19952;-75
2022/08/22 07:43:22;;;;;;;;;;;;;;;;;;5094433;28;19924;-76
2022/08/22 07:45:50;;;;;;;;;;;;;;;;;;5094987;28;20386;-76
2022/08/22 07:48:21;;;;;;;;;;;;;;;;;;5094784;28;20468;-77
2022/08/22 07:50:52;;;;;;;;;;;;;;;;;;5096046;28;19947;-78
2022/08/22 07:53:25;;;;;;;;;;;;;;;;;;5094759;28;19954;-78
2022/08/22 07:55:53;;;;;;;;;;;;;;;;;;5084483;28;19994;-77
2022/08/22 07:58:21;;;;;;;;;;;;;;;;;;5074312;28;19928;-78
2022/08/22 08:00:49;;;;;;;;;;;;;;;;;;5073898;28;20004;-77
2022/08/22 08:03:16;;;;;;;;;;;;;;;;;;5077594;28;20028;-80
2022/08/22 08:05:43;;;;;;;;;;;;;;;;;;5077469;28;19931;-78
2022/08/22 08:08:14;;;;;;;;;;;;;;;;;;5074828;28;19960;-79
2022/08/22 08:10:42;;;;;;;;;;;;;;;;;;5073799;28;19972;-77
2022/08/22 08:13:11;;;;;;;;;;;;;;;;;;5074530;28;19931;-78
2022/08/22 08:15:39;;;;;;;;;;;;;;;;;;5076961;28;19947;-79
2022/08/22 08:18:08;;;;;;;;;;;;;;;;;;5077041;28;19924;-79
2022/08/22 08:20:35;;;;;;;;;;;;;;;;;;5075605;28;19932;-78
2022/08/22 08:23:03;;;;;;;;;;;;;;;;;;5076892;28;20408;-78
2022/08/22 08:25:31;;;;;;;;;;;;;;;;;;5076394;28;19978;-79
2022/08/22 08:30:44;;;;;;;;;;;;;;;;;;5076433;28;19936;-79
2022/08/22 08:33:14;;;;;;;;;;;;;;;;;;5081044;28;19972;-78
2022/08/22 08:35:42;;;;;;;;;;;;;;;;;;5079287;28;20019;-78
2022/08/22 08:38:11;;;;;;;;;;;;;;;;;;5075677;28;19968;-78
2022/08/22 08:40:54;;;;;;;;;;;;;;;;;;5073572;28;20011;-78
2022/08/22 08:43:28;;;;;;;;;;;;;;;;;;5074096;28;19956;-78
2022/08/22 08:46:14;;;;;;;;;;;;;;;;;;5073896;28;19931;-78
2022/08/22 08:48:50;;;;;;;;;;;;;;;;;;5074357;28;20307;-78
2022/08/22 08:51:22;;;;;;;;;;;;;;;;;;5073376;28;20342;-79
2022/08/22 08:54:08;;;;;;;;;;;;;;;;;;5092318;28;20349;-78
2022/08/22 08:56:37;;;;;;;;;;;;;;;;;;5085533;28;20006;-78
2022/08/22 08:59:12;;;;;;;;;;;;;;;;;;5073435;28;19924;-79
2022/08/22 09:01:48;;;;;;;;;;;;;;;;;;5054758;28;19925;-79
2022/08/22 09:04:31;;;;;;;;;;;;;;;;;;5053145;28;20015;-78
2022/08/22 09:07:12;;;;;;;;;;;;;;;;;;5053989;28;20447;-79
2022/08/22 09:09:45;;;;;;;;;;;;;;;;;;5036099;28;20015;-77
2022/08/22 09:12:28;;;;;;;;;;;;;;;;;;5053125;28;19931;-76
2022/08/22 09:15:08;;;;;;;;;;;;;;;;;;5052667;28;20318;-79
2022/08/22 09:17:46;;;;;;;;;;;;;;;;;;5054355;28;20338;-79
2022/08/22 09:20:18;;;;;;;;;;;;;;;;;;5053041;28;20036;-77
2022/08/22 09:23:00;;;;;;;;;;;;;;;;;;5053284;28;19931;-78
2022/08/22 09:25:27;;;;;;;;;;;;;;;;;;5035658;28;20015;-77
2022/08/22 09:27:57;;;;;;;;;;;;;;;;;;5052647;28;20385;-78
2022/08/22 09:30:28;;;;;;;;;;;;;;;;;;5052388;28;19938;-77
2022/08/22 09:32:57;;;;;;;;;;;;;;;;;;5053274;28;19968;-79
2022/08/22 09:35:32;;;;;;;;;;;;;;;;;;5069411;28;20007;-80
2022/08/22 09:38:02;;;;;;;;;;;;;;;;;;5073370;28;20019;-76
2022/08/22 09:40:31;;;;;;;;;;;;;;;;;;5072170;28;19924;-81
2022/08/22 09:43:01;;;;;;;;;;;;;;;;;;5075307;28;20378;-83
2022/08/22 09:45:46;;;;;;;;;;;;;;;;;;5077976;28;19971;-79
2022/08/22 09:48:24;;;;;;;;;;;;;;;;;;5060749;28;19963;-79
2022/08/22 09:50:54;;;;;;;;;;;;;;;;;;5058018;28;19959;-80
2022/08/22 09:53:30;;;;;;;;;;;;;;;;;;5080195;28;19924;-79
2022/08/22 09:56:02;;;;;;;;;;;;;;;;;;5076505;28;20015;-79
2022/08/22 09:58:36;;;;;;;;;;;;;;;;;;5073676;28;20027;-76
2022/08/22 10:01:05;;;;;;;;;;;;;;;;;;5073596;28;19966;-75
2022/08/22 10:03:48;;;;;;;;;;;;;;;;;;5076939;28;20009;-76
2022/08/22 10:06:17;;;;;;;;;;;;;;;;;;5058057;28;19957;-77
2022/08/22 10:08:46;;;;;;;;;;;;;;;;;;5066589;28;19925;-76
2022/08/22 10:11:24;;;;;;;;;;;;;;;;;;5081043;28;19924;-77
2022/08/22 10:13:59;;;;;;;;;;;;;;;;;;5092468;28;19927;-77
2022/08/22 10:16:42;;;;;;;;;;;;;;;;;;5092907;28;19979;-76
2022/08/22 10:19:15;;;;;;;;;;;;;;;;;;5093687;28;19924;-81
2022/08/22 10:21:46;;;;;;;;;;;;;;;;;;5096318;28;19924;-80
2022/08/22 10:24:18;;;;;;;;;;;;;;;;;;5095901;28;19931;-84
2022/08/22 10:26:47;;;;;;;;;;;;;;;;;;5090460;28;19967;-82
2022/08/22 10:29:30;;;;;;;;;;;;;;;;;;5073128;28;19925;-78
2022/08/22 10:31:58;;;;;;;;;;;;;;;;;;5072207;28;20019;-77
2022/08/22 10:34:28;;;;;;;;;;;;;;;;;;5071332;28;19924;-77
2022/08/22 10:36:58;;;;;;;;;;;;;;;;;;5076337;28;20371;-80
2022/08/22 10:39:30;;;;;;;;;;;;;;;;;;5072115;28;20260;-77
2022/08/22 10:42:15;;;;;;;;;;;;;;;;;;5071379;28;20302;-78
2022/08/22 10:44:47;;;;;;;;;;;;;;;;;;5071995;28;20375;-78
2022/08/22 10:47:17;;;;;;;;;;;;;;;;;;5072260;28;19924;-77
2022/08/22 10:49:48;;;;;;;;;;;;;;;;;;5072075;28;20011;-76
2022/08/22 10:52:19;;;;;;;;;;;;;;;;;;5075710;28;20336;-77
2022/08/22 10:54:48;;;;;;;;;;;;;;;;;;5076150;28;19974;-77
2022/08/22 10:57:23;;;;;;;;;;;;;;;;;;5080018;28;19930;-78
2022/08/22 10:59:54;;;;;;;;;;;;;;;;;;5080518;28;19931;-80
2022/08/22 11:02:36;;;;;;;;;;;;;;;;;;5080172;28;19932;-80
2022/08/22 11:05:22;;;;;;;;;;;;;;;;;;5078087;28;19925;-76
2022/08/22 11:07:53;;;;;;;;;;;;;;;;;;5074866;28;19928;-77
2022/08/22 11:10:27;;;;;;;;;;;;;;;;;;5055650;28;19968;-77
2022/08/22 11:13:01;;;;;;;;;;;;;;;;;;5055392;28;20380;-76
2022/08/22 11:15:47;;;;;;;;;;;;;;;;;;5055213;28;19948;-77
2022/08/22 11:18:19;;;;;;;;;;;;;;;;;;5056689;28;19984;-78
2022/08/22 11:20:55;;;;;;;;;;;;;;;;;;5059463;28;20364;-78
2022/08/22 11:23:27;;;;;;;;;;;;;;;;;;5055945;28;19925;-77
2022/08/22 11:25:58;;;;;;;;;;;;;;;;;;5055142;28;20015;-78
2022/08/22 11:28:30;;;;;;;;;;;;;;;;;;5055080;28;20415;-77
2022/08/22 11:31:05;;;;;;;;;;;;;;;;;;5057722;28;20027;-76
2022/08/22 11:33:36;;;;;;;;;;;;;;;;;;5056949;28;20211;-79
2022/08/22 11:36:10;;;;;;;;;;;;;;;;;;5059673;28;19995;-79
2022/08/22 11:38:39;;;;;;;;;;;;;;;;;;5060186;28;20016;-79
2022/08/22 11:41:09;;;;;;;;;;;;;;;;;;5057610;28;19925;-79
2022/08/22 11:43:48;;;;;;;;;;;;;;;;;;5060820;28;19971;-78
2022/08/22 11:46:20;;;;;;;;;;;;;;;;;;5059974;28;19970;-79
2022/08/22 11:48:54;;;;;;;;;;;;;;;;;;5059951;28;19967;-79
2022/08/22 11:51:28;;;;;;;;;;;;;;;;;;5059354;28;19963;-79
2022/08/22 11:53:59;;;;;;;;;;;;;;;;;;5059678;28;19932;-81
2022/08/22 11:56:27;;;;;;;;;;;;;;;;;;5059422;28;19924;-79
2022/08/22 11:58:57;;;;;;;;;;;;;;;;;;5059370;28;19931;-79
2022/08/22 12:04:04;;;;;;;;;;;;;;;;;;5071232;28;19962;-76
2022/08/22 12:06:50;;;;;;;;;;;;;;;;;;5074695;28;20007;-76
2022/08/22 12:09:34;;;;;;;;;;;;;;;;;;5073920;28;19974;-76
2022/08/22 12:12:21;;;;;;;;;;;;;;;;;;5064106;28;20392;-77
2022/08/22 12:14:53;;;;;;;;;;;;;;;;;;5070605;28;19970;-75
2022/08/22 12:17:24;;;;;;;;;;;;;;;;;;5073904;28;19979;-75
2022/08/22 12:19:55;;;;;;;;;;;;;;;;;;5073886;28;19925;-76
2022/08/22 12:22:45;;;;;;;;;;;;;;;;;;5073874;28;19959;-76
2022/08/22 12:25:17;;;;;;;;;;;;;;;;;;5074316;28;19931;-75
2022/08/22 12:27:50;;;;;;;;;;;;;;;;;;5074644;28;19975;-76
2022/08/22 12:30:20;;;;;;;;;;;;;;;;;;5074531;28;20339;-75
2022/08/22 12:33:05;;;;;;;;;;;;;;;;;;5074430;28;20019;-76
2022/08/22 12:35:37;;;;;;;;;;;;;;;;;;5074016;28;19967;-76
2022/08/22 12:38:16;;;;;;;;;;;;;;;;;;5073937;28;19932;-76
2022/08/22 12:40:50;;;;;;;;;;;;;;;;;;5073456;28;19976;-75
2022/08/22 12:43:27;;;;;;;;;;;;;;;;;;5073507;28;19975;-76
2022/08/22 12:46:05;;;;;;;;;;;;;;;;;;5074018;28;19928;-75
2022/08/22 12:48:41;;;;;;;;;;;;;;;;;;5073862;28;20353;-76
2022/08/22 12:51:20;;;;;;;;;;;;;;;;;;5073311;28;19960;-76
2022/08/22 12:53:56;;;;;;;;;;;;;;;;;;5073365;28;20005;-77
2022/08/22 12:56:28;;;;;;;;;;;;;;;;;;5073426;28;19928;-74
2022/08/22 12:59:06;;;;;;;;;;;;;;;;;;5073641;28;20291;-76
2022/08/22 13:01:34;;;;;;;;;;;;;;;;;;5073657;28;19924;-76
2022/08/22 13:04:02;;;;;;;;;;;;;;;;;;5073298;28;19971;-75
2022/08/22 13:06:53;;;;;;;;;;;;;;;;;;5073204;28;20450;-76
2022/08/22 13:09:26;;;;;;;;;;;;;;;;;;5057426;28;19924;-76
2022/08/22 13:11:54;;;;;;;;;;;;;;;;;;5073117;28;19968;-76
2022/08/22 13:14:23;;;;;;;;;;;;;;;;;;5073236;28;19932;-76
2022/08/22 13:16:52;;;;;;;;;;;;;;;;;;5072971;28;20403;-76
2022/08/22 13:19:20;;;;;;;;;;;;;;;;;;5073091;28;19935;-76
2022/08/22 13:21:49;;;;;;;;;;;;;;;;;;5072971;28;21571;-76
2022/08/22 13:24:17;;;;;;;;;;;;;;;;;;5072887;28;20020;-75
2022/08/22 13:26:48;;;;;;;;;;;;;;;;;;5072830;28;19952;-76
2022/08/22 13:29:16;;;;;;;;;;;;;;;;;;5072348;28;19925;-76
2022/08/22 13:31:44;;;;;;;;;;;;;;;;;;5072969;28;19978;-77
2022/08/22 13:34:12;;;;;;;;;;;;;;;;;;5073140;28;20042;-77
2022/08/22 13:36:41;;;;;;;;;;;;;;;;;;5073197;28;19964;-77
2022/08/22 13:39:23;;;;;;;;;;;;;;;;;;5072423;28;19979;-75
2022/08/22 13:41:52;;;;;;;;;;;;;;;;;;5072358;28;19964;-76
2022/08/22 13:44:21;;;;;;;;;;;;;;;;;;5072010;28;21298;-75
2022/08/22 13:46:49;;;;;;;;;;;;;;;;;;5073292;28;19971;-75
2022/08/22 13:49:17;;;;;;;;;;;;;;;;;;5072585;28;19968;-76
2022/08/22 13:51:46;;;;;;;;;;;;;;;;;;5072822;28;19928;-75
2022/08/22 13:54:31;;;;;;;;;;;;;;;;;;5072771;28;20023;-75
2022/08/22 13:57:02;;;;;;;;;;;;;;;;;;5073112;28;19925;-75
2022/08/22 13:59:33;;;;;;;;;;;;;;;;;;5072781;28;19951;-75
2022/08/22 14:02:03;;;;;;;;;;;;;;;;;;5072553;28;20464;-76
2022/08/22 14:04:30;;;;;;;;;;;;;;;;;;5072851;28;20323;-75
2022/08/22 14:06:59;;;;;;;;;;;;;;;;;;5073045;28;19933;-75
2022/08/22 14:09:32;;;;;;;;;;;;;;;;;;5072902;28;19970;-77
2022/08/22 14:12:07;;;;;;;;;;;;;;;;;;5072552;28;19928;-76
2022/08/22 14:14:35;;;;;;;;;;;;;;;;;;5072674;28;19925;-76
2022/08/22 14:17:02;;;;;;;;;;;;;;;;;;5072606;28;19959;-75
2022/08/22 14:19:32;;;;;;;;;;;;;;;;;;5071952;28;19934;-76
2022/08/22 14:22:00;;;;;;;;;;;;;;;;;;5072931;28;19936;-76
2022/08/22 14:24:29;;;;;;;;;;;;;;;;;;5072426;28;19931;-75
2022/08/22 14:26:58;;;;;;;;;;;;;;;;;;5075479;28;19975;-76
2022/08/22 14:29:28;;;;;;;;;;;;;;;;;;5076047;28;20007;-76
2022/08/22 14:31:55;;;;;;;;;;;;;;;;;;5076161;28;19924;-76
2022/08/22 14:34:22;;;;;;;;;;;;;;;;;;5076784;28;20011;-76
2022/08/22 14:36:53;;;;;;;;;;;;;;;;;;5076841;28;20022;-76
2022/08/22 14:39:22;;;;;;;;;;;;;;;;;;5077294;28;20008;-75
2022/08/22 14:41:52;;;;;;;;;;;;;;;;;;5076512;28;20345;-76
2022/08/22 14:44:21;;;;;;;;;;;;;;;;;;5076174;28;20023;-76
2022/08/22 14:46:51;;;;;;;;;;;;;;;;;;5076108;28;19990;-76
2022/08/22 14:49:26;;;;;;;;;;;;;;;;;;5075594;28;19970;-75
2022/08/22 14:51:57;;;;;;;;;;;;;;;;;;5076189;28;19951;-76
2022/08/22 14:54:24;;;;;;;;;;;;;;;;;;5075772;28;20390;-76
2022/08/22 14:56:53;;;;;;;;;;;;;;;;;;5075796;28;19924;-75
2022/08/22 14:59:30;;;;;;;;;;;;;;;;;;5075508;28;19976;-76
2022/08/22 15:02:00;;;;;;;;;;;;;;;;;;5075581;28;20032;-76
2022/08/22 15:04:32;;;;;;;;;;;;;;;;;;5076075;28;20008;-76
2022/08/22 15:07:01;;;;;;;;;;;;;;;;;;5075996;28;19928;-75
2022/08/22 15:09:31;;;;;;;;;;;;;;;;;;5075258;28;19931;-75
2022/08/22 15:11:57;;;;;;;;;;;;;;;;;;5075900;28;20295;-76
2022/08/22 15:14:25;;;;;;;;;;;;;;;;;;5075292;28;20023;-76
2022/08/22 15:16:53;;;;;;;;;;;;;;;;;;5075323;28;20378;-75
2022/08/22 15:19:26;;;;;;;;;;;;;;;;;;5075116;28;20615;-75
2022/08/22 15:22:04;;;;;;;;;;;;;;;;;;5075910;28;19968;-75
2022/08/22 15:24:30;;;;;;;;;;;;;;;;;;5075446;28;19970;-76
2022/08/22 15:26:57;;;;;;;;;;;;;;;;;;5075744;28;19970;-75
2022/08/22 15:29:25;;;;;;;;;;;;;;;;;;5074693;28;20341;-76
2022/08/22 15:31:52;;;;;;;;;;;;;;;;;;5075343;28;19996;-76
2022/08/22 15:34:23;;;;;;;;;;;;;;;;;;5075064;28;19929;-76
2022/08/22 15:37:26;;;;;;;;;;;;;;;;;;5074243;28;20014;-76
2022/08/22 15:40:07;;;;;;;;;;;;;;;;;;5074881;28;19925;-76
2022/08/22 15:42:36;;;;;;;;;;;;;;;;;;5075086;28;19924;-77
2022/08/22 15:45:03;;;;;;;;;;;;;;;;;;5075098;28;20015;-76
2022/08/22 15:47:34;;;;;;;;;;;;;;;;;;5074990;28;19928;-76
2022/08/22 15:50:02;;;;;;;;;;;;;;;;;;5074384;28;19967;-76
2022/08/22 15:52:31;;;;;;;;;;;;;;;;;;5074887;28;19977;-76
2022/08/22 15:55:15;;;;;;;;;;;;;;;;;;5075113;28;20370;-76
2022/08/22 15:57:47;;;;;;;;;;;;;;;;;;5075152;28;19959;-76
2022/08/22 16:00:23;;;;;;;;;;;;;;;;;;5074643;28;19952;-76
2022/08/22 16:02:54;;;;;;;;;;;;;;;;;;5054524;28;19931;-76
2022/08/22 16:05:24;;;;;;;;;;;;;;;;;;5054464;28;20441;-75
2022/08/22 16:08:01;;;;;;;;;;;;;;;;;;5054546;28;19925;-76
2022/08/22 16:10:30;;;;;;;;;;;;;;;;;;5054038;28;20371;-76
2022/08/22 16:13:12;;;;;;;;;;;;;;;;;;5054577;28;20023;-76
2022/08/22 16:15:54;;;;;;;;;;;;;;;;;;5054505;28;20019;-76
2022/08/22 16:18:39;;;;;;;;;;;;;;;;;;5054004;28;20364;-76
2022/08/22 16:21:06;;;;;;;;;;;;;;;;;;5053937;28;19979;-76
2022/08/22 16:23:55;;;;;;;;;;;;;;;;;;5054275;28;19974;-75
2022/08/22 16:26:23;;;;;;;;;;;;;;;;;;5054139;28;19931;-76
2022/08/22 16:28:55;;;;;;;;;;;;;;;;;;5053931;28;20474;-76
2022/08/22 16:31:27;;;;;;;;;;;;;;;;;;5053698;28;20058;-76
2022/08/22 16:33:54;;;;;;;;;;;;;;;;;;5053851;28;19975;-76
2022/08/22 16:36:39;;;;;;;;;;;;;;;;;;5054272;28;19925;-76
2022/08/22 16:39:10;;;;;;;;;;;;;;;;;;5053651;28;20015;-76
2022/08/22 16:41:39;;;;;;;;;;;;;;;;;;5054174;28;19972;-75
2022/08/22 16:44:20;;;;;;;;;;;;;;;;;;5054320;28;19932;-76
2022/08/22 16:46:48;;;;;;;;;;;;;;;;;;5041251;28;20442;-76
2022/08/22 16:49:25;;;;;;;;;;;;;;;;;;5052979;28;19971;-76
2022/08/22 16:52:10;;;;;;;;;;;;;;;;;;5053425;28;20338;-76
2022/08/22 16:54:45;;;;;;;;;;;;;;;;;;5053506;28;19933;-75
2022/08/22 16:57:18;;;;;;;;;;;;;;;;;;5053827;28;20303;-75
2022/08/22 16:59:52;;;;;;;;;;;;;;;;;;5053214;28;20388;-75
2022/08/22 17:02:24;;;;;;;;;;;;;;;;;;5069889;28;19982;-76
2022/08/22 17:04:56;;;;;;;;;;;;;;;;;;5073575;28;19975;-76
2022/08/22 17:07:32;;;;;;;;;;;;;;;;;;5073529;28;20291;-77
2022/08/22 17:10:16;;;;;;;;;;;;;;;;;;5073685;28;19925;-76
2022/08/22 17:12:52;;;;;;;;;;;;;;;;;;5059675;28;20383;-76
2022/08/22 17:15:25;;;;;;;;;;;;;;;;;;5073390;28;20007;-76
2022/08/22 17:17:59;;;;;;;;;;;;;;;;;;5073844;28;20019;-75
2022/08/22 17:20:32;;;;;;;;;;;;;;;;;;5072870;28;19932;-75
2022/08/22 17:23:06;;;;;;;;;;;;;;;;;;5082294;28;19963;-75
2022/08/22 17:25:35;;;;;;;;;;;;;;;;;;5085606;28;20398;-75
2022/08/22 17:28:11;;;;;;;;;;;;;;;;;;5079205;28;19924;-75
2022/08/22 17:30:41;;;;;;;;;;;;;;;;;;5077195;28;19924;-75
2022/08/22 17:33:11;;;;;;;;;;;;;;;;;;5072592;28;19931;-76